createdAt,value
2022-11-25T08:04:00.435Z,8.90
2022-11-25T08:06:30.647Z,9.00
2022-11-25T08:09:00.146Z,9.00
2022-11-25T08:11:31.135Z,9.00
2022-11-25T08:13:59.913Z,9.10
2022-11-25T08:16:31.482Z,9.10
2022-11-25T08:19:03.002Z,9.20
2022-11-25T08:21:31.267Z,9.20
2022-11-25T08:23:59.630Z,9.20
2022-11-25T08:26:30.356Z,9.30
2022-11-25T08:28:59.236Z,9.30
2022-11-25T08:31:29.457Z,9.30
2022-11-25T08:33:58.239Z,9.30
2022-11-25T08:36:29.120Z,9.30
2022-11-25T08:38:59.302Z,9.30
2022-11-25T08:41:30.759Z,9.40
2022-11-25T08:44:00.021Z,9.40
2022-11-25T08:46:30.297Z,9.40
2022-11-25T08:48:58.916Z,9.40
2022-11-25T08:51:30.558Z,9.50
2022-11-25T08:53:59.574Z,9.40
2022-11-25T08:56:27.909Z,9.50
2022-11-25T08:58:56.898Z,9.50
2022-11-25T09:01:26.174Z,9.50
2022-11-25T09:03:56.496Z,9.60
2022-11-25T09:06:25.962Z,9.70
2022-11-25T09:08:58.461Z,9.80
2022-11-25T09:11:30.605Z,9.80
2022-11-25T09:13:58.834Z,9.90
2022-11-25T09:16:27.279Z,9.90
2022-11-25T09:18:56.338Z,10.00
2022-11-25T09:21:25.734Z,9.90
2022-11-25T09:23:55.081Z,9.90
2022-11-25T09:26:26.883Z,9.90
2022-11-25T09:28:54.978Z,9.90
2022-11-25T09:31:23.909Z,9.90
2022-11-25T09:33:52.025Z,9.90
2022-11-25T09:36:21.371Z,10.00
2022-11-25T09:38:49.442Z,10.20
2022-11-25T09:41:48.688Z,10.40
2022-11-25T09:44:43.860Z,10.50
2022-11-25T09:47:19.895Z,10.80
2022-11-25T09:50:03.806Z,11.00
2022-11-25T09:52:37.580Z,11.20
2022-11-25T09:55:08.501Z,11.50
2022-11-25T09:57:56.409Z,11.60
2022-11-25T10:00:36.336Z,11.90
2022-11-25T10:03:08.337Z,12.30
2022-11-25T10:05:40.205Z,12.60
2022-11-25T10:08:13.995Z,13.10
2022-11-25T10:10:46.689Z,13.50
2022-11-25T10:13:20.494Z,13.90
2022-11-25T10:15:51.566Z,14.30
2022-11-25T10:18:26.089Z,14.70
2022-11-25T10:20:55.297Z,14.90
2022-11-25T10:23:28.780Z,14.60
2022-11-25T10:25:59.719Z,14.70
2022-11-25T10:28:32.914Z,14.70
2022-11-25T10:31:05.253Z,14.50
2022-11-25T10:33:36.620Z,14.20
2022-11-25T10:36:11.215Z,14.20
2022-11-25T10:38:44.120Z,14.50
2022-11-25T10:41:16.744Z,14.70
2022-11-25T10:43:48.002Z,14.90
2022-11-25T10:46:38.180Z,14.90
2022-11-25T10:49:21.202Z,15.00
2022-11-25T10:51:50.773Z,15.30
2022-11-25T10:54:27.230Z,15.40
2022-11-25T10:56:57.960Z,15.70
2022-11-25T10:59:32.684Z,15.90
2022-11-25T11:02:19.132Z,16.40
2022-11-25T11:04:54.888Z,16.80
2022-11-25T11:07:23.890Z,16.90
2022-11-25T11:09:52.279Z,16.90
2022-11-25T11:12:23.685Z,16.90
2022-11-25T11:14:53.540Z,17.00
2022-11-25T11:17:36.771Z,17.10
2022-11-25T11:20:20.593Z,17.10
2022-11-25T11:22:53.010Z,17.20
2022-11-25T11:25:31.594Z,17.30
2022-11-25T11:27:59.714Z,17.60
2022-11-25T11:30:30.468Z,17.80
2022-11-25T11:33:04.999Z,18.00
2022-11-25T11:35:53.717Z,18.10
2022-11-25T11:38:32.393Z,18.20
2022-11-25T11:41:11.842Z,18.30
2022-11-25T11:43:54.441Z,18.30
2022-11-25T11:46:35.081Z,18.40
2022-11-25T11:49:18.783Z,18.40
2022-11-25T11:51:54.861Z,18.50
2022-11-25T11:54:34.637Z,18.70
2022-11-25T11:57:07.123Z,18.70
2022-11-25T11:59:53.807Z,18.90
2022-11-25T12:02:43.952Z,19.00
2022-11-25T12:05:18.919Z,19.20
2022-11-25T12:07:59.504Z,19.40
2022-11-25T12:10:32.211Z,19.60
2022-11-25T12:13:09.651Z,20.00
2022-11-25T12:15:45.049Z,19.50
2022-11-25T12:18:25.417Z,19.50
2022-11-25T12:21:02.298Z,19.70
2022-11-25T12:23:40.364Z,19.40
2022-11-25T12:26:13.586Z,19.10
2022-11-25T12:28:46.992Z,19.20
2022-11-25T12:31:21.226Z,19.40
2022-11-25T12:33:59.000Z,19.30
2022-11-25T12:36:33.938Z,19.40
2022-11-25T12:39:05.066Z,19.80
2022-11-25T12:41:43.054Z,19.80
2022-11-25T12:44:19.162Z,19.40
2022-11-25T12:46:49.039Z,19.00
2022-11-25T12:49:21.434Z,19.30
2022-11-25T12:52:23.104Z,19.60
2022-11-25T12:55:14.762Z,19.60
2022-11-25T12:57:58.211Z,19.50
2022-11-25T13:00:41.513Z,19.70
2022-11-25T13:03:40.965Z,19.60
2022-11-25T13:06:25.360Z,19.50
2022-11-25T13:09:01.196Z,19.20
2022-11-25T13:12:02.544Z,19.10
2022-11-25T13:14:49.335Z,19.20
2022-11-25T13:17:19.061Z,19.00
2022-11-25T13:19:47.414Z,18.70
2022-11-25T13:22:29.949Z,18.80
2022-11-25T13:24:59.417Z,19.00
2022-11-25T13:27:32.367Z,19.20
2022-11-25T13:30:04.545Z,19.50
2022-11-25T13:32:39.017Z,19.60
2022-11-25T13:35:58.082Z,19.70
2022-11-25T13:38:59.958Z,19.70
2022-11-25T13:41:47.698Z,19.80
2022-11-25T13:44:25.338Z,19.20
2022-11-25T13:46:55.217Z,18.90
2022-11-25T13:49:29.611Z,19.10
2022-11-25T13:51:59.338Z,19.10
2022-11-25T13:54:35.629Z,19.30
2022-11-25T13:57:26.000Z,19.70
2022-11-25T13:59:57.908Z,19.80
2022-11-25T14:02:45.182Z,20.00
2022-11-25T14:05:37.927Z,20.40
2022-11-25T14:08:15.919Z,20.70
2022-11-25T14:10:52.553Z,20.70
2022-11-25T14:13:42.458Z,21.00
2022-11-25T14:16:26.150Z,21.20
2022-11-25T14:19:51.124Z,21.20
2022-11-25T14:22:21.499Z,21.30
2022-11-25T14:24:51.440Z,21.60
2022-11-25T14:27:25.753Z,21.50
2022-11-25T14:29:57.575Z,21.90
2022-11-25T14:32:33.820Z,21.90
2022-11-25T14:35:07.019Z,22.20
2022-11-25T14:37:42.685Z,22.50
2022-11-25T14:40:16.562Z,22.50
2022-11-25T14:42:49.610Z,22.20
2022-11-25T14:45:26.252Z,21.80
2022-11-25T14:47:54.374Z,20.90
2022-11-25T14:50:38.503Z,20.00
2022-11-25T14:53:08.774Z,19.10
2022-11-25T14:55:37.907Z,18.10
2022-11-25T14:58:07.341Z,17.50
2022-11-25T15:00:35.399Z,17.00
2022-11-25T15:03:04.888Z,16.70
2022-11-25T15:05:34.926Z,16.40
2022-11-25T15:08:05.566Z,16.10
2022-11-25T15:10:37.672Z,15.90
2022-11-25T15:13:14.196Z,15.80
2022-11-25T15:15:46.872Z,15.50
2022-11-25T15:18:20.474Z,15.40
2022-11-25T15:20:51.074Z,15.30
2022-11-25T15:23:25.406Z,15.20
2022-11-25T15:25:54.412Z,15.20
